createdAt,value
2023-04-03T00:01:20.614Z,99158.56
2023-04-03T00:03:49.010Z,99161.13
2023-04-03T00:06:17.131Z,99148.84
2023-04-03T00:08:45.076Z,99156.81
2023-04-03T00:11:13.531Z,99163.63
2023-04-03T00:13:41.440Z,99161.22
2023-04-03T00:16:10.709Z,99154.31
2023-04-03T00:18:39.833Z,99153.44
2023-04-03T00:21:08.932Z,99162.97
2023-04-03T00:23:36.921Z,99168.09
2023-04-03T00:26:05.284Z,99173.13
2023-04-03T00:28:33.249Z,99164.41
2023-04-03T00:31:01.416Z,99165.44
2023-04-03T00:33:29.703Z,99170.50
2023-04-03T00:35:57.703Z,99173.88
2023-04-03T00:38:25.867Z,99175.72
2023-04-03T00:40:54.099Z,99168.81
2023-04-03T00:43:24.996Z,99171.28
2023-04-03T00:45:55.026Z,99167.97
2023-04-03T00:48:25.727Z,99166.97
2023-04-03T00:50:53.991Z,99173.09
2023-04-03T00:53:32.826Z,99175.69
2023-04-03T00:56:01.728Z,99169.69
2023-04-03T00:58:50.617Z,99176.59
2023-04-03T01:01:23.472Z,99179.91
2023-04-03T01:03:51.514Z,99172.03
2023-04-03T01:06:24.689Z,99178.97
2023-04-03T01:08:52.939Z,99168.59
2023-04-03T01:11:22.183Z,99172.13
2023-04-03T01:13:50.590Z,99177.31
2023-04-03T01:16:18.629Z,99167.69
2023-04-03T01:18:48.225Z,99175.53
2023-04-03T01:21:28.229Z,99176.56
2023-04-03T01:24:21.764Z,99173.84
2023-04-03T01:26:50.661Z,99172.13
2023-04-03T01:29:19.016Z,99171.47
2023-04-03T01:31:53.139Z,99177.25
2023-04-03T01:34:21.780Z,99175.50
2023-04-03T01:36:51.807Z,99171.41
2023-04-03T01:39:20.428Z,99176.47
2023-04-03T01:41:49.112Z,99173.81
2023-04-03T01:44:18.148Z,99172.19
2023-04-03T01:46:46.406Z,99173.78
2023-04-03T01:49:14.746Z,99183.97
2023-04-03T01:51:42.557Z,99183.47
2023-04-03T01:54:10.631Z,99188.09
2023-04-03T01:56:40.220Z,99187.34
2023-04-03T01:59:09.108Z,99180.31
2023-04-03T02:01:37.532Z,99190.19
2023-04-03T02:04:06.019Z,99193.28
2023-04-03T02:06:33.916Z,99200.37
2023-04-03T02:09:01.882Z,99195.97
2023-04-03T02:11:31.982Z,99196.78
2023-04-03T02:13:59.862Z,99201.00
2023-04-03T02:16:27.858Z,99202.84
2023-04-03T02:18:56.175Z,99199.38
2023-04-03T02:21:24.229Z,99200.37
2023-04-03T02:23:52.116Z,99200.31
2023-04-03T02:26:20.992Z,99210.66
2023-04-03T02:28:49.084Z,99207.78
2023-04-03T02:31:17.096Z,99200.19
2023-04-03T02:33:46.240Z,99209.47
2023-04-03T02:36:14.452Z,99203.38
2023-04-03T02:38:43.341Z,99199.22
2023-04-03T02:41:12.868Z,99204.47
2023-04-03T02:43:41.139Z,99207.72
2023-04-03T02:46:09.526Z,99208.41
2023-04-03T02:48:37.960Z,99212.47
2023-04-03T02:51:06.155Z,99215.09
2023-04-03T02:53:34.144Z,99209.16
2023-04-03T02:56:04.094Z,99216.31
2023-04-03T02:58:32.018Z,99207.59
2023-04-03T03:01:00.189Z,99219.47
2023-04-03T03:03:28.459Z,99212.62
2023-04-03T03:06:09.875Z,99214.22
2023-04-03T03:08:38.752Z,99208.44
2023-04-03T03:11:06.718Z,99219.72
2023-04-03T03:13:35.087Z,99219.50
2023-04-03T03:16:03.903Z,99210.84
2023-04-03T03:18:31.951Z,99214.66
2023-04-03T03:21:01.611Z,99212.59
2023-04-03T03:23:33.301Z,99208.13
2023-04-03T03:26:04.113Z,99211.59
2023-04-03T03:28:32.834Z,99216.53
2023-04-03T03:31:01.562Z,99210.84
2023-04-03T03:33:30.483Z,99210.78
2023-04-03T03:35:58.830Z,99207.22
2023-04-03T03:38:26.762Z,99202.03
2023-04-03T03:40:55.005Z,99207.06
2023-04-03T03:43:24.137Z,99201.09
2023-04-03T03:45:53.623Z,99196.84
2023-04-03T03:48:22.706Z,99197.94
2023-04-03T03:50:51.361Z,99191.16
2023-04-03T03:53:20.579Z,99195.91
2023-04-03T03:55:49.074Z,99201.47
2023-04-03T03:58:17.738Z,99202.22
2023-04-03T04:00:45.859Z,99193.31
2023-04-03T04:03:14.438Z,99193.50
2023-04-03T04:05:42.556Z,99194.00
2023-04-03T04:08:10.501Z,99195.06
2023-04-03T04:10:38.869Z,99190.22
2023-04-03T04:13:07.376Z,99195.47
2023-04-03T04:15:36.106Z,99194.91
2023-04-03T04:18:04.857Z,99183.84
2023-04-03T04:20:33.162Z,99205.97
2023-04-03T04:23:01.216Z,99199.78
2023-04-03T04:25:30.108Z,99213.47
2023-04-03T04:27:58.082Z,99216.28
2023-04-03T04:30:26.336Z,99218.09
2023-04-03T04:32:55.932Z,99212.78
2023-04-03T04:35:23.914Z,99216.75
2023-04-03T04:37:52.359Z,99213.16
2023-04-03T04:40:20.862Z,99221.81
2023-04-03T04:42:49.275Z,99229.50
2023-04-03T04:45:17.879Z,99230.22
2023-04-03T04:47:46.558Z,99219.44
2023-04-03T04:50:15.229Z,99227.25
2023-04-03T04:52:43.227Z,99221.22
2023-04-03T04:55:11.479Z,99217.94
2023-04-03T04:57:40.006Z,99229.34
2023-04-03T05:00:09.147Z,99223.91
2023-04-03T05:02:37.718Z,99235.12
2023-04-03T05:05:06.063Z,99233.28
2023-04-03T05:07:34.525Z,99234.19
2023-04-03T05:10:04.026Z,99240.34
2023-04-03T05:12:33.450Z,99239.72
2023-04-03T05:15:01.701Z,99241.22
2023-04-03T05:17:31.196Z,99245.63
2023-04-03T05:19:59.600Z,99242.22
2023-04-03T05:22:28.031Z,99248.44
2023-04-03T05:24:56.601Z,99258.62
2023-04-03T05:27:25.391Z,99254.34
2023-04-03T05:29:54.354Z,99249.56
2023-04-03T05:32:28.030Z,99249.31
2023-04-03T05:34:58.367Z,99256.72
2023-04-03T05:37:27.728Z,99256.16
2023-04-03T05:39:55.868Z,99258.38
2023-04-03T05:42:24.195Z,99259.69
2023-04-03T05:44:52.763Z,99261.72
2023-04-03T05:47:20.877Z,99265.91
2023-04-03T05:49:49.171Z,99261.06
2023-04-03T05:52:41.286Z,99263.59
2023-04-03T05:55:13.605Z,99266.38
2023-04-03T05:57:41.875Z,99265.56
2023-04-03T06:02:54.639Z,99254.75
2023-04-03T06:05:23.828Z,99248.63
2023-04-03T06:07:51.934Z,99259.16
2023-04-03T06:10:21.436Z,99254.97
2023-04-03T06:12:49.597Z,99249.03
2023-04-03T06:15:18.457Z,99256.19
2023-04-03T06:17:47.133Z,99253.66
2023-04-03T06:20:15.121Z,99251.94
2023-04-03T06:22:43.177Z,99260.59
2023-04-03T06:25:13.336Z,99260.59
2023-04-03T06:27:43.498Z,99262.31
2023-04-03T06:30:12.530Z,99256.25
2023-04-03T06:32:40.396Z,99255.34
2023-04-03T06:35:08.880Z,99265.66
2023-04-03T06:37:37.187Z,99257.62
2023-04-03T06:40:06.119Z,99254.00
2023-04-03T06:42:34.161Z,99266.19
2023-04-03T06:45:02.992Z,99273.31
2023-04-03T06:47:31.130Z,99277.66
2023-04-03T06:49:59.093Z,99283.28
2023-04-03T06:52:28.715Z,99278.69
2023-04-03T06:54:59.004Z,99279.03
2023-04-03T06:57:27.662Z,99283.34
2023-04-03T06:59:55.671Z,99292.66
2023-04-03T07:02:23.970Z,99302.31
2023-04-03T07:04:52.245Z,99298.06
2023-04-03T07:07:20.127Z,99289.81
2023-04-03T07:09:49.225Z,99296.81
2023-04-03T07:12:17.902Z,99296.03
2023-04-03T07:14:45.783Z,99297.66
2023-04-03T07:17:13.742Z,99302.00
2023-04-03T07:19:42.066Z,99302.03
2023-04-03T07:22:10.582Z,99296.81
2023-04-03T07:24:38.449Z,99297.59
2023-04-03T07:27:09.166Z,99296.81
2023-04-03T07:29:37.237Z,99301.94
2023-04-03T07:32:08.056Z,99302.00
2023-04-03T07:34:38.390Z,99299.37
2023-04-03T07:37:09.873Z,99298.50
2023-04-03T07:39:38.269Z,99294.09
2023-04-03T07:42:06.325Z,99305.47
2023-04-03T07:44:35.407Z,99296.84
2023-04-03T07:47:03.699Z,99301.88
2023-04-03T07:49:34.158Z,99296.50
2023-04-03T07:52:02.005Z,99301.88
2023-04-03T07:54:33.827Z,99305.38
2023-04-03T07:57:02.541Z,99301.84
2023-04-03T07:59:31.253Z,99307.06
2023-04-03T08:01:59.300Z,99310.97
2023-04-03T08:04:28.252Z,99313.44
2023-04-03T08:06:57.501Z,99311.84
2023-04-03T08:09:25.404Z,99308.91
2023-04-03T08:11:56.441Z,99308.03
2023-04-03T08:14:24.415Z,99309.81
2023-04-03T08:16:54.471Z,99310.41
2023-04-03T08:19:26.519Z,99312.31
2023-04-03T08:21:56.497Z,99318.75
2023-04-03T08:24:24.811Z,99323.88
2023-04-03T08:26:54.481Z,99324.03
2023-04-03T08:29:22.594Z,99324.03
2023-04-03T08:31:51.557Z,99330.72
2023-04-03T08:34:20.419Z,99313.81
2023-04-03T08:36:50.608Z,99317.03
2023-04-03T08:39:18.685Z,99323.00
2023-04-03T08:41:50.465Z,99318.03
2023-04-03T08:44:46.565Z,99321.44
2023-04-03T08:47:22.572Z,99324.78
2023-04-03T08:49:54.713Z,99321.03
2023-04-03T08:52:39.832Z,99317.31
2023-04-03T08:55:23.428Z,99327.72
2023-04-03T08:57:58.918Z,99316.09
2023-04-03T09:00:30.096Z,99316.25
2023-04-03T09:02:58.325Z,99325.25
2023-04-03T09:05:32.389Z,99327.91
2023-04-03T09:08:27.196Z,99323.06
2023-04-03T09:11:30.462Z,99324.44
2023-04-03T09:14:02.340Z,99326.12
2023-04-03T09:16:56.436Z,99329.16
2023-04-03T09:19:39.854Z,99329.63
2023-04-03T09:22:22.492Z,99334.00
2023-04-03T09:25:00.598Z,99329.34
2023-04-03T09:27:28.796Z,99333.78
2023-04-03T09:29:57.932Z,99335.41
2023-04-03T09:32:31.471Z,99331.75
2023-04-03T09:35:19.015Z,99335.81
2023-04-03T09:37:54.450Z,99333.62
2023-04-03T09:40:37.338Z,99337.97
2023-04-03T09:43:29.856Z,99338.94
2023-04-03T09:46:29.854Z,99330.75
2023-04-03T09:51:34.930Z,99315.53
2023-04-03T09:54:29.470Z,99320.00
2023-04-03T09:57:03.774Z,99324.25
2023-04-03T09:59:34.558Z,99328.75
2023-04-03T10:02:44.147Z,99317.88
2023-04-03T10:05:35.476Z,99326.94
2023-04-03T10:08:10.746Z,99322.19
2023-04-03T10:10:39.849Z,99323.78
2023-04-03T10:13:20.224Z,99323.00
2023-04-03T10:15:56.467Z,99320.22
2023-04-03T10:18:47.643Z,99320.31
2023-04-03T10:21:32.261Z,99326.03
2023-04-03T10:24:16.301Z,99320.50
2023-04-03T10:27:01.504Z,99319.88
2023-04-03T10:29:55.734Z,99328.44
2023-04-03T10:32:46.600Z,99326.31
2023-04-03T10:35:38.262Z,99325.25
2023-04-03T10:38:32.574Z,99322.97
2023-04-03T10:41:08.818Z,99325.66
2023-04-03T10:43:49.129Z,99310.88
2023-04-03T10:46:34.210Z,99316.91
2023-04-03T10:49:14.607Z,99321.06
2023-04-03T10:51:48.079Z,99313.47
2023-04-03T10:54:29.610Z,99316.59
2023-04-03T10:57:11.873Z,99315.22
2023-04-03T10:59:48.004Z,99311.56
2023-04-03T11:02:30.246Z,99319.62
2023-04-03T11:05:09.565Z,99317.34
2023-04-03T11:07:44.773Z,99311.34
2023-04-03T11:10:25.400Z,99310.28
2023-04-03T11:13:03.464Z,99316.63
2023-04-03T11:15:35.779Z,99311.72
2023-04-03T11:18:10.496Z,99310.09
2023-04-03T11:20:41.381Z,99306.38
2023-04-03T11:23:35.569Z,99310.19
2023-04-03T11:26:17.009Z,99300.66
2023-04-03T11:28:46.253Z,99298.00
2023-04-03T11:31:22.328Z,99296.91
2023-04-03T11:34:15.102Z,99293.66
2023-04-03T11:36:56.716Z,99292.66
2023-04-03T11:39:33.664Z,99285.97
2023-04-03T11:42:40.294Z,99286.34
2023-04-03T11:45:29.594Z,99283.63
2023-04-03T11:48:25.192Z,99288.19
2023-04-03T11:50:53.451Z,99287.22
2023-04-03T11:53:35.754Z,99285.94
2023-04-03T11:59:14.734Z,99289.59
2023-04-03T12:01:48.539Z,99281.03
2023-04-03T12:04:19.165Z,99279.41
2023-04-03T12:06:49.590Z,99281.69
2023-04-03T12:09:40.624Z,99279.91
2023-04-03T12:12:31.648Z,99282.63
2023-04-03T12:15:38.632Z,99283.66
2023-04-03T12:18:44.285Z,99276.50
2023-04-03T12:21:14.759Z,99274.72
2023-04-03T12:24:05.596Z,99267.00
2023-04-03T12:26:45.542Z,99268.97
2023-04-03T12:29:27.694Z,99274.94
2023-04-03T12:32:11.745Z,99271.50
2023-04-03T12:34:54.828Z,99270.56
2023-04-03T12:37:32.262Z,99269.56
2023-04-03T12:40:12.718Z,99265.34
2023-04-03T12:42:43.884Z,99273.31
2023-04-03T12:45:22.701Z,99263.94
2023-04-03T12:47:53.906Z,99273.47
2023-04-03T12:50:31.368Z,99259.78
2023-04-03T12:53:08.773Z,99266.88
2023-04-03T12:55:37.828Z,99250.91
2023-04-03T12:58:32.591Z,99262.37
2023-04-03T13:01:06.678Z,99260.50
2023-04-03T13:03:35.528Z,99255.63
2023-04-03T13:06:04.986Z,99254.31
2023-04-03T13:08:33.620Z,99246.56
2023-04-03T13:11:11.668Z,99241.72
2023-04-03T13:13:40.609Z,99241.75
2023-04-03T13:16:12.139Z,99239.63
2023-04-03T13:18:40.367Z,99248.22
2023-04-03T13:21:16.651Z,99236.72
2023-04-03T13:23:50.200Z,99237.59
2023-04-03T13:26:21.952Z,99236.38
2023-04-03T13:28:54.752Z,99228.22
2023-04-03T13:31:41.694Z,99229.03
2023-04-03T13:34:17.362Z,99231.50
2023-04-03T13:36:52.451Z,99230.72
2023-04-03T13:39:22.250Z,99227.91
2023-04-03T13:41:52.797Z,99221.41
2023-04-03T13:44:23.757Z,99221.91
2023-04-03T13:46:59.845Z,99226.03
2023-04-03T13:49:29.857Z,99222.28
2023-04-03T13:52:07.219Z,99231.50
2023-04-03T13:54:40.741Z,99222.94
2023-04-03T13:57:15.430Z,99217.72
2023-04-03T13:59:44.508Z,99213.19
2023-04-03T14:02:20.646Z,99216.87
2023-04-03T14:04:59.303Z,99205.06
2023-04-03T14:07:27.605Z,99204.94
2023-04-03T14:09:56.198Z,99203.91
2023-04-03T14:12:43.719Z,99202.81
2023-04-03T14:15:25.448Z,99205.56
2023-04-03T14:17:53.478Z,99208.03
2023-04-03T14:20:24.134Z,99219.50
2023-04-03T14:22:56.717Z,99213.28
2023-04-03T14:25:25.173Z,99207.53
2023-04-03T14:27:56.726Z,99212.53
2023-04-03T14:30:30.906Z,99208.37
2023-04-03T14:32:59.529Z,99211.97
2023-04-03T14:35:28.381Z,99216.84
2023-04-03T14:38:00.761Z,99217.56
2023-04-03T14:40:29.705Z,99217.03
2023-04-03T14:42:58.620Z,99219.41
2023-04-03T14:45:27.472Z,99220.44
2023-04-03T14:47:58.845Z,99220.66
2023-04-03T14:50:28.651Z,99220.47
2023-04-03T14:53:01.875Z,99228.75
2023-04-03T14:55:29.825Z,99230.94
2023-04-03T14:57:58.148Z,99230.03
2023-04-03T15:00:27.310Z,99233.31
2023-04-03T15:02:55.353Z,99229.09
2023-04-03T15:05:23.938Z,99236.81
2023-04-03T15:07:56.816Z,99230.72
2023-04-03T15:10:28.082Z,99233.47
2023-04-03T15:12:56.771Z,99227.50
2023-04-03T15:15:25.808Z,99233.53
2023-04-03T15:17:56.040Z,99234.22
2023-04-03T15:20:27.564Z,99233.91
2023-04-03T15:22:57.402Z,99237.88
2023-04-03T15:25:26.546Z,99230.03
2023-04-03T15:27:56.279Z,99230.78
2023-04-03T15:30:24.293Z,99232.78
2023-04-03T15:32:53.921Z,99236.09
2023-04-03T15:35:22.204Z,99232.75
2023-04-03T15:37:50.451Z,99236.13
2023-04-03T15:40:18.901Z,99234.38
2023-04-03T15:42:46.963Z,99236.91
2023-04-03T15:45:16.809Z,99236.97
2023-04-03T15:47:45.042Z,99236.97
2023-04-03T15:50:13.640Z,99243.12
2023-04-03T15:52:41.711Z,99236.28
2023-04-03T15:55:10.284Z,99243.19
2023-04-03T16:00:09.159Z,99238.09
2023-04-03T16:02:38.855Z,99231.09
2023-04-03T16:05:07.554Z,99231.19
2023-04-03T16:07:40.815Z,99233.78
2023-04-03T16:10:11.516Z,99234.59
2023-04-03T16:12:40.125Z,99235.47
2023-04-03T16:15:08.398Z,99234.69
2023-04-03T16:17:38.522Z,99237.25
2023-04-03T16:20:08.063Z,99228.66
2023-04-03T16:22:36.501Z,99220.84
2023-04-03T16:25:06.269Z,99221.72
2023-04-03T16:27:34.347Z,99227.75
2023-04-03T16:30:02.847Z,99219.94
2023-04-03T16:32:32.475Z,99226.06
2023-04-03T16:37:35.842Z,99232.97
2023-04-03T16:40:04.706Z,99240.72
2023-04-03T16:42:32.642Z,99240.72
2023-04-03T16:45:03.951Z,99241.59
2023-04-03T16:47:32.193Z,99250.22
2023-04-03T16:50:00.980Z,99257.97
2023-04-03T16:52:29.096Z,99250.22
2023-04-03T16:54:58.939Z,99246.75
2023-04-03T16:57:27.704Z,99257.13
2023-04-03T16:59:56.301Z,99247.63
2023-04-03T17:02:28.847Z,99263.16
2023-04-03T17:04:57.165Z,99253.66
2023-04-03T17:07:26.231Z,99255.41
2023-04-03T17:09:55.034Z,99265.78
2023-04-03T17:12:23.558Z,99276.16
2023-04-03T17:14:51.672Z,99277.81
2023-04-03T17:17:22.441Z,99289.94
2023-04-03T17:19:50.828Z,99298.59
2023-04-03T17:22:19.906Z,99304.62
2023-04-03T17:24:47.870Z,99318.38
2023-04-03T17:27:16.197Z,99308.94
2023-04-03T17:29:44.005Z,99311.53
2023-04-03T17:32:14.071Z,99312.38
2023-04-03T17:34:42.513Z,99326.12
2023-04-03T17:37:11.096Z,99326.12
2023-04-03T17:39:39.062Z,99330.47
2023-04-03T17:42:07.322Z,99340.78
2023-04-03T17:44:35.195Z,99345.91
2023-04-03T17:47:03.344Z,99352.78
2023-04-03T17:49:33.375Z,99363.22
2023-04-03T17:52:01.222Z,99358.06
2023-04-03T17:54:29.142Z,99367.63
2023-04-03T17:56:57.360Z,99366.78
2023-04-03T17:59:25.323Z,99378.00
2023-04-03T18:01:53.595Z,99378.78
2023-04-03T18:04:22.226Z,99396.94
2023-04-03T18:06:51.783Z,99394.41
2023-04-03T18:09:24.967Z,99403.75
2023-04-03T18:11:54.950Z,99409.97
2023-04-03T18:14:24.774Z,99426.19
2023-04-03T18:16:54.041Z,99433.94
2023-04-03T18:19:23.838Z,99438.28
2023-04-03T18:21:56.717Z,99434.53
2023-04-03T18:24:26.422Z,99440.69
2023-04-03T18:26:59.240Z,99440.88
2023-04-03T18:29:29.593Z,99449.16
2023-04-03T18:31:58.048Z,99450.94
2023-04-03T18:34:26.008Z,99455.31
2023-04-03T18:36:54.280Z,99455.53
2023-04-03T18:39:24.010Z,99465.09
2023-04-03T18:41:53.057Z,99464.97
2023-04-03T18:44:24.255Z,99478.47
2023-04-03T18:46:54.066Z,99479.81
2023-04-03T18:49:22.395Z,99476.38
2023-04-03T18:51:50.315Z,99473.56
2023-04-03T18:54:18.202Z,99467.72
2023-04-03T18:56:46.534Z,99475.13
2023-04-03T18:59:14.889Z,99473.78
2023-04-03T19:01:42.873Z,99462.59
2023-04-03T19:04:11.807Z,99468.22
2023-04-03T19:06:39.899Z,99466.22
2023-04-03T19:09:08.234Z,99472.81
2023-04-03T19:11:36.966Z,99478.00
2023-04-03T19:14:16.247Z,99483.84
2023-04-03T19:16:45.352Z,99482.09
2023-04-03T19:19:13.457Z,99481.25
2023-04-03T19:21:42.301Z,99476.13
2023-04-03T19:24:11.853Z,99477.38
2023-04-03T19:26:41.204Z,99472.41
2023-04-03T19:29:09.720Z,99471.72
2023-04-03T19:31:38.646Z,99481.16
2023-04-03T19:34:07.109Z,99475.69
2023-04-03T19:36:36.248Z,99479.78
2023-04-03T19:39:05.688Z,99482.69
2023-04-03T19:41:36.174Z,99471.50
2023-04-03T19:44:06.019Z,99475.09
2023-04-03T19:46:34.108Z,99467.66
2023-04-03T19:49:02.201Z,99483.72
2023-04-03T19:51:30.726Z,99464.44
2023-04-03T19:53:58.629Z,99477.63
2023-04-03T19:56:27.317Z,99478.81
2023-04-03T19:58:55.573Z,99479.41
2023-04-03T20:01:24.852Z,99467.81
2023-04-03T20:03:53.234Z,99474.31
2023-04-03T20:06:21.879Z,99474.09
2023-04-03T20:08:49.878Z,99473.47
2023-04-03T20:11:18.366Z,99473.94
2023-04-03T20:13:49.754Z,99472.34
2023-04-03T20:16:18.986Z,99473.31
2023-04-03T20:18:48.578Z,99472.84
2023-04-03T20:21:18.974Z,99474.66
2023-04-03T20:23:47.216Z,99471.69
2023-04-03T20:26:23.944Z,99471.53
2023-04-03T20:28:52.997Z,99469.38
2023-04-03T20:31:22.918Z,99467.97
2023-04-03T20:33:51.596Z,99467.84
2023-04-03T20:36:20.894Z,99473.56
2023-04-03T20:38:49.126Z,99463.97
2023-04-03T20:41:17.293Z,99470.56
2023-04-03T20:43:47.709Z,99476.28
2023-04-03T20:46:19.789Z,99474.31
2023-04-03T20:48:48.441Z,99482.78
2023-04-03T20:51:19.099Z,99477.28
2023-04-03T20:53:48.410Z,99478.06
2023-04-03T20:56:17.247Z,99482.97
2023-04-03T20:58:46.453Z,99485.94
2023-04-03T21:01:23.045Z,99484.44
2023-04-03T21:03:57.537Z,99480.19
2023-04-03T21:07:03.444Z,99480.84
2023-04-03T21:10:09.291Z,99479.25
2023-04-03T21:13:14.774Z,99477.53
2023-04-03T21:15:55.526Z,99477.81
2023-04-03T21:18:32.744Z,99466.03
2023-04-03T21:21:03.002Z,99466.41
2023-04-03T21:23:31.566Z,99466.47
2023-04-03T21:26:02.546Z,99471.50
2023-04-03T21:28:30.866Z,99471.47
2023-04-03T21:30:58.866Z,99470.19
2023-04-03T21:33:27.592Z,99467.13
2023-04-03T21:35:58.826Z,99472.56
2023-04-03T21:38:27.567Z,99473.09
2023-04-03T21:40:59.319Z,99467.09
2023-04-03T21:43:27.399Z,99457.09
2023-04-03T21:46:00.079Z,99456.69
2023-04-03T21:48:31.498Z,99458.94
2023-04-03T21:51:03.946Z,99458.09
2023-04-03T21:53:33.930Z,99451.94
2023-04-03T21:56:02.866Z,99450.59
2023-04-03T21:58:32.253Z,99450.22
2023-04-03T22:01:11.237Z,99451.09
2023-04-03T22:03:41.168Z,99451.28
2023-04-03T22:06:10.182Z,99449.12
2023-04-03T22:08:38.270Z,99440.81
2023-04-03T22:11:08.632Z,99444.69
2023-04-03T22:13:37.770Z,99447.56
2023-04-03T22:16:06.336Z,99440.47
2023-04-03T22:18:35.157Z,99440.62
2023-04-03T22:21:03.348Z,99442.69
2023-04-03T22:23:31.236Z,99441.16
2023-04-03T22:26:10.610Z,99442.19
2023-04-03T22:28:40.758Z,99441.16
2023-04-03T22:31:10.000Z,99445.50
2023-04-03T22:33:38.416Z,99441.59
2023-04-03T22:36:07.916Z,99447.47
2023-04-03T22:38:37.294Z,99450.56
2023-04-03T22:41:08.302Z,99448.25
2023-04-03T22:43:37.691Z,99446.94
2023-04-03T22:46:09.053Z,99463.44
2023-04-03T22:48:38.912Z,99454.75
2023-04-03T22:51:10.122Z,99464.03
2023-04-03T22:53:38.703Z,99464.00
2023-04-03T22:56:14.154Z,99464.72
2023-04-03T22:58:42.429Z,99462.25
2023-04-03T23:01:15.141Z,99457.88
2023-04-03T23:03:43.484Z,99455.47
2023-04-03T23:06:13.585Z,99458.84
2023-04-03T23:08:42.924Z,99466.16
2023-04-03T23:11:11.754Z,99469.34
2023-04-03T23:13:39.759Z,99458.13
2023-04-03T23:16:08.257Z,99459.28
2023-04-03T23:18:40.032Z,99453.03
2023-04-03T23:21:09.603Z,99452.87
2023-04-03T23:23:38.066Z,99453.63
2023-04-03T23:26:06.271Z,99452.22
2023-04-03T23:28:34.287Z,99453.81
2023-04-03T23:31:06.248Z,99458.84
2023-04-03T23:33:34.513Z,99452.75
2023-04-03T23:36:08.015Z,99450.09
2023-04-03T23:38:37.027Z,99440.34
2023-04-03T23:41:05.476Z,99449.47
2023-04-03T23:43:34.082Z,99449.44
2023-04-03T23:46:02.186Z,99450.56
2023-04-03T23:48:30.542Z,99439.53
2023-04-03T23:50:58.464Z,99447.75
2023-04-03T23:53:26.545Z,99444.22
2023-04-03T23:55:54.834Z,99449.94
2023-04-03T23:58:22.931Z,99454.06
